Terminal Aerodrome Forecast
Issued by NWS

Home | Current Version | Previous Version | Text Only | Print | Product List | Glossary On
Versions: 1 2 3 4 5 6 7 8 9 10 11 12 13
000
FTUS45 KVEF 220531
TAFDAG
TAF
KDAG 220531Z 2206/2306 27008KT P6SM FEW250
     FM221500 27015KT P6SM FEW200
     FM221700 26025G35KT P6SM FEW200
     FM230400 25020G30KT P6SM FEW200=

USA.gov is the U.S. government's official web portal to all federal, state and local government web resources and services.